Time,TemperatureF,DewpointF,PressureIn,WindDirection,WindDirectionDegrees,WindSpeedMPH,WindSpeedGustMPH,Humidity,HourlyPrecipIn,Conditions,Clouds,dailyrainin,SolarRadiationWatts/m^2,SoftwareType,DateUTC
2014-01-25 00:01:00,60.2,27.8,29.92,NNW,347,0.0,0.0,29,0.00,,,0.00,0,Wunderground v.1.15,2014-01-25 07:01:00,
2014-01-25 00:07:00,60.2,27.8,29.92,NNW,347,0.0,0.0,29,0.00,,,0.00,0,Wunderground v.1.15,2014-01-25 07:07:00,
2014-01-25 00:12:00,60.2,27.8,29.92,NNW,347,0.0,0.0,29,0.00,,,0.00,0,Wunderground v.1.15,2014-01-25 07:12:00,
2014-01-25 00:18:00,60.1,27.7,29.92,NNW,347,0.0,0.0,29,0.00,,,0.00,0,Wunderground v.1.15,2014-01-25 07:18:00,
2014-01-25 00:23:00,60.1,28.5,29.92,NNW,347,0.0,0.0,30,0.00,,,0.00,0,Wunderground v.1.15,2014-01-25 07:23:00,
2014-01-25 00:29:00,59.9,28.4,29.92,NNW,347,0.0,0.0,30,0.00,,,0.00,0,Wunderground v.1.15,2014-01-25 07:29:00,
2014-01-25 00:34:00,59.9,27.5,29.92,NNW,347,0.0,0.0,29,0.00,,,0.00,0,Wunderground v.1.15,2014-01-25 07:34:00,
2014-01-25 00:40:00,59.9,27.5,29.92,NNW,347,0.0,0.0,29,0.00,,,0.00,0,Wunderground v.1.15,2014-01-25 07:40:00,
2014-01-25 00:45:00,59.9,27.5,29.92,NNW,347,0.0,0.0,29,0.00,,,0.00,0,Wunderground v.1.15,2014-01-25 07:45:00,
2014-01-25 00:50:00,60.1,27.7,29.92,NNW,347,0.0,0.0,29,0.00,,,0.00,0,Wunderground v.1.15,2014-01-25 07:50:00,
2014-01-25 00:56:00,60.1,27.7,29.91,NNW,347,0.0,0.0,29,0.00,,,0.00,0,Wunderground v.1.15,2014-01-25 07:56:00,
2014-01-25 01:01:00,60.1,27.7,29.91,NNW,347,0.0,0.0,29,0.00,,,0.00,0,Wunderground v.1.15,2014-01-25 08:01:00,
2014-01-25 01:06:00,59.9,27.5,29.91,NNW,347,0.0,0.0,29,0.00,,,0.00,0,Wunderground v.1.15,2014-01-25 08:06:00,
2014-01-25 01:12:00,60.1,26.0,29.90,NNW,347,0.0,0.0,27,0.00,,,0.00,0,Wunderground v.1.15,2014-01-25 08:12:00,
2014-01-25 01:18:00,60.4,24.4,29.90,NNW,347,0.0,0.0,25,0.00,,,0.00,0,Wunderground v.1.15,2014-01-25 08:18:00,
2014-01-25 01:24:00,60.9,22.8,29.90,NNW,347,0.0,0.0,23,0.00,,,0.00,0,Wunderground v.1.15,2014-01-25 08:24:00,
2014-01-25 01:30:00,60.9,26.7,29.90,NNW,347,0.0,0.0,27,0.00,,,0.00,0,Wunderground v.1.15,2014-01-25 08:30:00,
2014-01-25 01:35:00,60.7,27.4,29.90,NNW,347,0.0,0.0,28,0.00,,,0.00,0,Wunderground v.1.15,2014-01-25 08:35:00,
2014-01-25 01:41:00,60.4,28.0,29.90,NNW,347,0.0,0.0,29,0.00,,,0.00,0,Wunderground v.1.15,2014-01-25 08:41:00,
2014-01-25 01:46:00,60.1,27.7,29.90,NNW,347,0.0,0.0,29,0.00,,,0.00,0,Wunderground v.1.15,2014-01-25 08:46:00,
2014-01-25 01:51:00,59.9,25.8,29.90,NNW,347,0.0,0.0,27,0.00,,,0.00,0,Wunderground v.1.15,2014-01-25 08:51:00,
2014-01-25 01:57:00,59.8,29.1,29.90,NNW,347,0.0,0.0,31,0.00,,,0.00,0,Wunderground v.1.15,2014-01-25 08:57:00,
2014-01-25 02:02:00,59.3,30.2,29.90,NNW,347,0.0,0.0,33,0.00,,,0.00,0,Wunderground v.1.15,2014-01-25 09:02:00,
2014-01-25 02:08:00,59.2,31.5,29.90,NNW,347,0.0,0.0,35,0.00,,,0.00,0,Wunderground v.1.15,2014-01-25 09:08:00,
2014-01-25 02:14:00,58.9,31.3,29.91,NNW,347,0.0,0.0,35,0.00,,,0.00,0,Wunderground v.1.15,2014-01-25 09:14:00,
2014-01-25 02:20:00,58.7,30.4,29.91,NNW,347,0.0,0.0,34,0.00,,,0.00,0,Wunderground v.1.15,2014-01-25 09:20:00,
2014-01-25 02:25:00,58.6,31.0,29.91,NNW,347,0.0,0.0,35,0.00,,,0.00,0,Wunderground v.1.15,2014-01-25 09:25:00,
2014-01-25 02:30:00,58.4,31.5,29.91,NNW,347,0.0,0.0,36,0.00,,,0.00,0,Wunderground v.1.15,2014-01-25 09:30:00,
2014-01-25 02:36:00,58.3,33.4,29.91,NNW,347,0.0,0.0,39,0.00,,,0.00,0,Wunderground v.1.15,2014-01-25 09:36:00,
2014-01-25 02:42:00,58.4,32.2,29.91,NNW,347,0.0,0.0,37,0.00,,,0.00,0,Wunderground v.1.15,2014-01-25 09:42:00,
2014-01-25 02:49:00,58.4,31.5,29.91,NNW,347,0.0,0.0,36,0.00,,,0.00,0,Wunderground v.1.15,2014-01-25 09:49:00,
2014-01-25 02:54:00,58.3,33.4,29.91,NNW,347,0.0,0.0,39,0.00,,,0.00,0,Wunderground v.1.15,2014-01-25 09:54:00,
2014-01-25 03:00:00,58.1,33.2,29.91,NNW,347,0.0,0.0,39,0.00,,,0.00,0,Wunderground v.1.15,2014-01-25 10:00:00,
2014-01-25 03:05:00,58.0,33.2,29.91,NNW,347,0.0,0.0,39,0.00,,,0.00,0,Wunderground v.1.15,2014-01-25 10:05:00,
2014-01-25 03:11:00,57.8,33.0,29.90,NNW,347,0.0,0.0,39,0.00,,,0.00,0,Wunderground v.1.15,2014-01-25 10:11:00,
2014-01-25 03:17:00,57.6,33.4,29.90,NNW,347,0.0,0.0,40,0.00,,,0.00,0,Wunderground v.1.15,2014-01-25 10:17:00,
2014-01-25 03:22:00,57.5,33.3,29.90,NNW,347,0.0,0.0,40,0.00,,,0.00,0,Wunderground v.1.15,2014-01-25 10:22:00,
2014-01-25 03:28:00,57.5,33.3,29.89,NNW,347,0.0,0.0,40,0.00,,,0.00,0,Wunderground v.1.15,2014-01-25 10:28:00,
2014-01-25 03:34:00,57.3,35.6,29.89,NNW,347,0.0,0.0,44,0.00,,,0.00,0,Wunderground v.1.15,2014-01-25 10:34:00,
2014-01-25 03:39:00,57.3,33.2,29.89,NNW,347,0.0,0.0,40,0.00,,,0.00,0,Wunderground v.1.15,2014-01-25 10:39:00,
2014-01-25 03:44:00,57.3,34.4,29.89,NNW,347,0.0,0.0,42,0.00,,,0.00,0,Wunderground v.1.15,2014-01-25 10:44:00,
2014-01-25 03:50:00,57.3,33.8,29.89,NNW,347,0.0,0.0,41,0.00,,,0.00,0,Wunderground v.1.15,2014-01-25 10:50:00,
2014-01-25 03:55:00,57.3,32.5,29.89,NNW,347,0.0,0.0,39,0.00,,,0.00,0,Wunderground v.1.15,2014-01-25 10:55:00,
2014-01-25 04:00:00,57.3,34.4,29.89,NNW,347,0.0,0.0,42,0.00,,,0.00,0,Wunderground v.1.15,2014-01-25 11:00:00,
2014-01-25 04:06:00,57.3,33.8,29.89,NNW,347,0.0,0.0,41,0.00,,,0.00,0,Wunderground v.1.15,2014-01-25 11:06:00,
2014-01-25 04:12:00,57.3,31.2,29.89,NNW,347,0.0,0.0,37,0.00,,,0.00,0,Wunderground v.1.15,2014-01-25 11:12:00,
2014-01-25 04:18:00,57.8,28.9,29.89,NNW,347,0.0,0.0,33,0.00,,,0.00,0,Wunderground v.1.15,2014-01-25 11:18:00,
2014-01-25 04:24:00,58.0,29.8,29.89,NNW,347,0.0,0.0,34,0.00,,,0.00,0,Wunderground v.1.15,2014-01-25 11:24:00,
2014-01-25 04:29:00,58.1,31.3,29.89,NNW,347,0.0,0.0,36,0.00,,,0.00,0,Wunderground v.1.15,2014-01-25 11:29:00,
2014-01-25 04:34:00,58.0,34.4,29.89,NNW,347,0.0,0.0,41,0.00,,,0.00,0,Wunderground v.1.15,2014-01-25 11:34:00,
2014-01-25 04:41:00,57.6,33.4,29.88,NNW,347,0.0,0.0,40,0.00,,,0.00,0,Wunderground v.1.15,2014-01-25 11:41:00,
2014-01-25 04:46:00,57.3,35.0,29.88,NNW,347,0.0,0.0,43,0.00,,,0.00,0,Wunderground v.1.15,2014-01-25 11:46:00,
2014-01-25 04:52:00,57.0,35.9,29.88,NNW,347,0.0,0.0,45,0.00,,,0.00,0,Wunderground v.1.15,2014-01-25 11:52:00,
2014-01-25 04:58:00,56.9,32.8,29.89,NNW,347,0.0,0.0,40,0.00,,,0.00,0,Wunderground v.1.15,2014-01-25 11:58:00,
2014-01-25 05:04:00,57.0,32.3,29.89,NNW,347,0.0,0.0,39,0.00,,,0.00,0,Wunderground v.1.15,2014-01-25 12:04:00,
2014-01-25 05:09:00,57.0,29.6,29.89,NNW,347,0.0,0.0,35,0.00,,,0.00,0,Wunderground v.1.15,2014-01-25 12:09:00,
2014-01-25 05:14:00,56.9,34.6,29.90,NNW,347,0.0,0.0,43,0.00,,,0.00,0,Wunderground v.1.15,2014-01-25 12:14:00,
2014-01-25 05:20:00,56.6,34.9,29.90,NNW,347,0.0,0.0,44,0.00,,,0.00,0,Wunderground v.1.15,2014-01-25 12:20:00,
2014-01-25 05:25:00,56.5,35.4,29.90,NNW,347,0.0,0.0,45,0.00,,,0.00,0,Wunderground v.1.15,2014-01-25 12:25:00,
2014-01-25 05:30:00,56.5,35.4,29.90,NNW,347,0.0,0.0,45,0.00,,,0.00,0,Wunderground v.1.15,2014-01-25 12:30:00,
2014-01-25 05:36:00,56.3,35.2,29.90,NNW,347,0.0,0.0,45,0.00,,,0.00,0,Wunderground v.1.15,2014-01-25 12:36:00,
2014-01-25 05:41:00,56.0,37.1,29.90,NNW,347,0.0,0.0,49,0.00,,,0.00,0,Wunderground v.1.15,2014-01-25 12:41:00,
2014-01-25 05:47:00,55.7,34.7,29.90,NNW,347,0.0,0.0,45,0.00,,,0.00,0,Wunderground v.1.15,2014-01-25 12:47:00,
2014-01-25 05:54:00,55.7,33.5,29.90,NNW,347,0.0,0.0,43,0.00,,,0.00,0,Wunderground v.1.15,2014-01-25 12:54:00,
2014-01-25 05:59:00,55.7,35.8,29.90,NNW,347,0.0,0.0,47,0.00,,,0.00,0,Wunderground v.1.15,2014-01-25 12:59:00,
2014-01-25 06:05:00,55.6,36.2,29.90,NNW,347,0.0,0.0,48,0.00,,,0.00,0,Wunderground v.1.15,2014-01-25 13:05:00,
2014-01-25 06:11:00,55.6,35.7,29.90,NNW,347,0.0,0.0,47,0.00,,,0.00,0,Wunderground v.1.15,2014-01-25 13:11:00,
2014-01-25 06:17:00,55.6,36.7,29.90,NNW,347,0.0,0.0,49,0.00,,,0.00,0,Wunderground v.1.15,2014-01-25 13:17:00,
2014-01-25 06:23:00,55.4,36.5,29.90,NNW,347,0.0,0.0,49,0.00,,,0.00,0,Wunderground v.1.15,2014-01-25 13:23:00,
2014-01-25 06:28:00,55.4,36.5,29.90,NNW,347,0.0,0.0,49,0.00,,,0.00,0,Wunderground v.1.15,2014-01-25 13:28:00,
2014-01-25 06:34:00,55.6,34.0,29.90,NNW,347,0.0,0.0,44,0.00,,,0.00,0,Wunderground v.1.15,2014-01-25 13:34:00,
2014-01-25 06:40:00,55.9,32.5,29.90,NNW,347,0.0,0.0,41,0.00,,,0.00,0,Wunderground v.1.15,2014-01-25 13:40:00,
2014-01-25 06:45:00,56.2,33.4,29.90,NNW,347,0.0,0.0,42,0.00,,,0.00,0,Wunderground v.1.15,2014-01-25 13:45:00,
2014-01-25 06:50:00,56.2,34.6,29.90,NNW,347,0.0,0.0,44,0.00,,,0.00,0,Wunderground v.1.15,2014-01-25 13:50:00,
2014-01-25 06:55:00,56.2,34.6,29.90,NNW,347,0.0,0.0,44,0.00,,,0.00,0,Wunderground v.1.15,2014-01-25 13:55:00,
2014-01-25 07:01:00,56.2,34.0,29.90,NNW,347,0.0,0.0,43,0.00,,,0.00,0,Wunderground v.1.15,2014-01-25 14:01:00,
2014-01-25 07:07:00,56.2,33.4,29.90,NNW,347,0.0,0.0,42,0.00,,,0.00,0,Wunderground v.1.15,2014-01-25 14:07:00,
2014-01-25 07:14:00,56.2,34.6,29.91,NNW,347,0.0,0.0,44,0.00,,,0.00,0,Wunderground v.1.15,2014-01-25 14:14:00,
2014-01-25 07:19:00,56.2,34.0,29.91,NNW,347,0.0,0.0,43,0.00,,,0.00,0,Wunderground v.1.15,2014-01-25 14:19:00,
2014-01-25 07:25:00,56.0,34.9,29.91,NNW,347,0.0,0.0,45,0.00,,,0.00,0,Wunderground v.1.15,2014-01-25 14:25:00,
2014-01-25 07:30:00,55.9,35.4,29.91,NNW,347,0.0,0.0,46,0.00,,,0.00,5,Wunderground v.1.15,2014-01-25 14:30:00,
2014-01-25 07:36:00,55.7,36.8,29.91,NNW,347,0.0,0.0,49,0.00,,,0.00,9,Wunderground v.1.15,2014-01-25 14:36:00,
2014-01-25 07:42:00,55.4,36.5,29.91,NNW,347,0.0,0.0,49,0.00,,,0.00,11,Wunderground v.1.15,2014-01-25 14:42:00,
2014-01-25 07:48:00,55.3,35.9,29.91,NNW,347,0.0,0.0,48,0.00,,,0.00,16,Wunderground v.1.15,2014-01-25 14:48:00,
2014-01-25 07:54:00,55.3,35.9,29.91,NNW,347,0.0,0.0,48,0.00,,,0.00,21,Wunderground v.1.15,2014-01-25 14:54:00,
2014-01-25 07:59:00,55.3,34.9,29.91,NNW,347,0.0,0.0,46,0.00,,,0.00,26,Wunderground v.1.15,2014-01-25 14:59:00,
2014-01-25 08:05:00,55.4,36.0,29.91,NNW,347,0.0,0.0,48,0.00,,,0.00,33,Wunderground v.1.15,2014-01-25 15:05:00,
2014-01-25 08:11:00,55.7,36.8,29.92,NNW,347,0.0,0.0,49,0.00,,,0.00,40,Wunderground v.1.15,2014-01-25 15:11:00,
2014-01-25 08:16:00,55.7,36.3,29.92,NNW,347,0.0,0.0,48,0.00,,,0.00,48,Wunderground v.1.15,2014-01-25 15:16:00,
2014-01-25 08:22:00,56.0,35.5,29.92,NNW,347,0.0,0.0,46,0.00,,,0.00,51,Wunderground v.1.15,2014-01-25 15:22:00,
2014-01-25 08:29:00,56.3,35.2,29.91,NNW,347,0.0,0.0,45,0.00,,,0.00,62,Wunderground v.1.15,2014-01-25 15:29:00,
2014-01-25 08:34:00,56.6,34.9,29.91,NNW,347,0.0,0.0,44,0.00,,,0.00,70,Wunderground v.1.15,2014-01-25 15:34:00,
2014-01-25 08:39:00,56.9,34.6,29.91,NNW,347,0.0,0.0,43,0.00,,,0.00,77,Wunderground v.1.15,2014-01-25 15:39:00,
2014-01-25 08:44:00,57.2,34.9,29.91,NNW,347,0.0,0.0,43,0.00,,,0.00,79,Wunderground v.1.15,2014-01-25 15:44:00,
2014-01-25 08:50:00,57.6,34.7,29.91,NNW,347,0.0,0.0,42,0.00,,,0.00,83,Wunderground v.1.15,2014-01-25 15:50:00,
2014-01-25 08:56:00,58.0,35.0,29.91,NNW,347,0.0,0.0,42,0.00,,,0.00,90,Wunderground v.1.15,2014-01-25 15:56:00,
2014-01-25 09:01:00,58.4,34.2,29.91,NNW,347,0.0,0.0,40,0.00,,,0.00,95,Wunderground v.1.15,2014-01-25 16:01:00,
2014-01-25 09:07:00,58.7,34.4,29.91,NNW,347,0.0,0.0,40,0.00,,,0.00,104,Wunderground v.1.15,2014-01-25 16:07:00,
2014-01-25 09:14:00,59.0,34.7,29.91,NNW,347,0.0,0.0,40,0.00,,,0.00,118,Wunderground v.1.15,2014-01-25 16:14:00,
2014-01-25 09:19:00,59.3,34.3,29.91,NNW,347,0.0,0.0,39,0.00,,,0.00,146,Wunderground v.1.15,2014-01-25 16:19:00,
2014-01-25 09:24:00,59.9,31.4,29.91,NNW,347,0.0,0.0,34,0.00,,,0.00,165,Wunderground v.1.15,2014-01-25 16:24:00,
2014-01-25 09:29:00,60.5,33.4,29.91,NNW,347,0.0,0.0,36,0.00,,,0.00,151,Wunderground v.1.15,2014-01-25 16:29:00,
2014-01-25 09:35:00,61.2,30.3,29.91,NNW,347,0.0,0.0,31,0.00,,,0.00,208,Wunderground v.1.15,2014-01-25 16:35:00,
2014-01-25 09:40:00,61.8,29.2,29.91,NNW,347,0.0,0.0,29,0.00,,,0.00,151,Wunderground v.1.15,2014-01-25 16:40:00,
2014-01-25 09:46:00,62.4,30.5,29.91,NNW,347,0.0,0.0,30,0.00,,,0.00,310,Wunderground v.1.15,2014-01-25 16:46:00,
2014-01-25 09:51:00,63.4,24.9,29.91,NNW,347,0.0,0.0,23,0.00,,,0.00,324,Wunderground v.1.15,2014-01-25 16:51:00,
2014-01-25 09:57:00,64.5,21.3,29.91,NNW,347,0.0,0.0,19,0.00,,,0.00,333,Wunderground v.1.15,2014-01-25 16:57:00,
2014-01-25 10:02:00,65.2,23.1,29.91,NNW,347,0.0,0.0,20,0.00,,,0.00,343,Wunderground v.1.15,2014-01-25 17:02:00,
2014-01-25 10:08:00,66.0,22.5,29.91,NNW,347,0.0,0.0,19,0.00,,,0.00,354,Wunderground v.1.15,2014-01-25 17:08:00,
2014-01-25 10:13:00,66.8,23.2,29.91,NNW,347,0.0,0.0,19,0.00,,,0.00,364,Wunderground v.1.15,2014-01-25 17:13:00,
2014-01-25 10:19:00,67.6,21.2,29.91,NNW,347,0.0,0.0,17,0.00,,,0.00,378,Wunderground v.1.15,2014-01-25 17:19:00,
2014-01-25 10:24:00,68.6,22.0,29.90,NNW,347,0.0,0.0,17,0.00,,,0.00,391,Wunderground v.1.15,2014-01-25 17:24:00,
2014-01-25 10:30:00,69.1,22.4,29.90,NNW,347,0.0,0.0,17,0.00,,,0.00,413,Wunderground v.1.15,2014-01-25 17:30:00,
2014-01-25 10:36:00,70.1,15.1,29.90,NNW,347,0.0,0.0,12,0.00,,,0.00,406,Wunderground v.1.15,2014-01-25 17:36:00,
2014-01-25 10:41:00,70.1,18.6,29.90,NNW,347,0.0,0.0,14,0.00,,,0.00,406,Wunderground v.1.15,2014-01-25 17:41:00,
2014-01-25 10:47:00,69.8,14.8,29.90,NNW,347,0.0,0.0,12,0.00,,,0.00,449,Wunderground v.1.15,2014-01-25 17:47:00,
2014-01-25 10:54:00,70.4,15.3,29.90,NNW,347,0.0,0.0,12,0.00,,,0.00,466,Wunderground v.1.15,2014-01-25 17:54:00,
2014-01-25 10:59:00,69.3,19.6,29.90,NNW,347,0.0,1.0,15,0.00,,,0.00,457,Wunderground v.1.15,2014-01-25 17:59:00,
2014-01-25 11:04:00,69.6,16.5,29.90,NNW,347,0.0,0.0,13,0.00,,,0.00,470,Wunderground v.1.15,2014-01-25 18:04:00,
2014-01-25 11:10:00,69.8,16.7,29.90,NNW,347,0.0,0.0,13,0.00,,,0.00,465,Wunderground v.1.15,2014-01-25 18:10:00,
2014-01-25 11:16:00,70.3,17.1,29.90,NNW,347,0.0,0.0,13,0.00,,,0.00,468,Wunderground v.1.15,2014-01-25 18:16:00,
2014-01-25 11:22:00,69.9,16.8,29.90,NNW,347,0.0,0.0,13,0.00,,,0.00,479,Wunderground v.1.15,2014-01-25 18:22:00,
2014-01-25 11:28:00,69.9,14.9,29.90,NNW,347,0.0,0.0,12,0.00,,,0.00,484,Wunderground v.1.15,2014-01-25 18:28:00,
2014-01-25 11:33:00,70.6,13.5,29.90,NNW,347,0.0,0.0,11,0.00,,,0.00,489,Wunderground v.1.15,2014-01-25 18:33:00,
2014-01-25 11:39:00,71.5,16.2,29.89,NNW,347,0.0,0.0,12,0.00,,,0.00,494,Wunderground v.1.15,2014-01-25 18:39:00,
2014-01-25 11:45:00,72.7,17.1,29.89,NNW,347,0.0,0.0,12,0.00,,,0.00,501,Wunderground v.1.15,2014-01-25 18:45:00,
2014-01-25 11:50:00,73.2,15.5,29.89,NNW,347,0.0,0.0,11,0.00,,,0.00,509,Wunderground v.1.15,2014-01-25 18:50:00,
2014-01-25 11:56:00,72.3,14.8,29.88,NNW,347,0.0,0.0,11,0.00,,,0.00,512,Wunderground v.1.15,2014-01-25 18:56:00,
2014-01-25 12:02:00,72.5,16.9,29.88,NNW,347,0.0,0.0,12,0.00,,,0.00,524,Wunderground v.1.15,2014-01-25 19:02:00,
2014-01-25 12:09:00,73.0,17.3,29.88,NNW,347,0.0,0.0,12,0.00,,,0.00,440,Wunderground v.1.15,2014-01-25 19:09:00,
2014-01-25 12:14:00,73.9,21.7,29.86,NNW,347,0.0,0.0,14,0.00,,,0.00,535,Wunderground v.1.15,2014-01-25 19:14:00,
2014-01-25 12:19:00,73.9,18.0,29.86,NNW,347,0.0,0.0,12,0.00,,,0.00,531,Wunderground v.1.15,2014-01-25 19:19:00,
2014-01-25 12:25:00,72.5,16.9,29.85,NNW,347,0.0,0.0,12,0.00,,,0.00,530,Wunderground v.1.15,2014-01-25 19:25:00,
2014-01-25 12:30:00,72.5,16.9,29.85,NNW,347,0.0,0.0,12,0.00,,,0.00,528,Wunderground v.1.15,2014-01-25 19:30:00,
2014-01-25 12:36:00,73.3,15.6,29.85,NNW,347,0.0,2.0,11,0.00,,,0.00,530,Wunderground v.1.15,2014-01-25 19:36:00,
2014-01-25 12:42:00,73.3,15.6,29.84,NNW,347,0.0,0.0,11,0.00,,,0.00,530,Wunderground v.1.15,2014-01-25 19:42:00,
2014-01-25 12:48:00,73.7,13.7,29.84,NNW,347,0.0,2.0,10,0.00,,,0.00,530,Wunderground v.1.15,2014-01-25 19:48:00,
2014-01-25 12:54:00,74.4,16.4,29.84,NNW,347,0.0,0.0,11,0.00,,,0.00,530,Wunderground v.1.15,2014-01-25 19:54:00,
2014-01-25 12:59:00,75.1,14.8,29.83,NNW,347,0.0,0.0,10,0.00,,,0.00,530,Wunderground v.1.15,2014-01-25 19:59:00,
2014-01-25 13:04:00,74.0,16.1,29.83,NNW,347,1.0,3.0,11,0.00,,,0.00,530,Wunderground v.1.15,2014-01-25 20:04:00,
2014-01-25 13:10:00,74.4,16.4,29.83,NNW,347,1.0,1.0,11,0.00,,,0.00,523,Wunderground v.1.15,2014-01-25 20:10:00,
2014-01-25 13:15:00,74.7,14.5,29.83,NNW,347,0.0,1.0,10,0.00,,,0.00,524,Wunderground v.1.15,2014-01-25 20:15:00,
2014-01-25 13:21:00,74.7,14.5,29.83,NNW,347,0.0,0.0,10,0.00,,,0.00,526,Wunderground v.1.15,2014-01-25 20:21:00,
2014-01-25 13:27:00,74.4,18.4,29.81,NNW,347,1.0,3.0,12,0.00,,,0.00,535,Wunderground v.1.15,2014-01-25 20:27:00,
2014-01-25 13:33:00,74.6,16.6,29.81,NNW,347,0.0,0.0,11,0.00,,,0.00,465,Wunderground v.1.15,2014-01-25 20:33:00,
2014-01-25 13:38:00,75.3,14.9,29.81,NNW,347,0.0,0.0,10,0.00,,,0.00,457,Wunderground v.1.15,2014-01-25 20:38:00,
2014-01-25 13:44:00,74.6,14.4,29.81,NNW,347,0.0,2.0,10,0.00,,,0.00,461,Wunderground v.1.15,2014-01-25 20:44:00,
2014-01-25 13:49:00,75.6,15.1,29.81,NNW,347,0.0,2.0,10,0.00,,,0.00,387,Wunderground v.1.15,2014-01-25 20:49:00,
2014-01-25 13:55:00,75.8,12.9,29.80,NNW,347,0.0,1.0,9,0.00,,,0.00,491,Wunderground v.1.15,2014-01-25 20:55:00,
2014-01-25 14:00:00,75.8,15.3,29.80,NNW,347,0.0,0.0,10,0.00,,,0.00,468,Wunderground v.1.15,2014-01-25 21:00:00,
2014-01-25 14:06:00,76.3,15.7,29.80,NNW,347,0.0,0.0,10,0.00,,,0.00,366,Wunderground v.1.15,2014-01-25 21:06:00,
2014-01-25 14:11:00,74.7,14.5,29.80,NNW,347,0.0,0.0,10,0.00,,,0.00,452,Wunderground v.1.15,2014-01-25 21:11:00,
2014-01-25 14:17:00,74.0,18.1,29.80,NNW,347,0.0,0.0,12,0.00,,,0.00,442,Wunderground v.1.15,2014-01-25 21:17:00,
2014-01-25 14:24:00,74.2,14.1,29.80,NNW,347,0.0,0.0,10,0.00,,,0.00,403,Wunderground v.1.15,2014-01-25 21:24:00,
2014-01-25 14:29:00,74.2,14.1,29.80,NNW,347,0.0,1.0,10,0.00,,,0.00,334,Wunderground v.1.15,2014-01-25 21:29:00,
2014-01-25 14:35:00,74.2,14.1,29.80,NNW,347,0.0,0.0,10,0.00,,,0.00,459,Wunderground v.1.15,2014-01-25 21:35:00,
2014-01-25 14:41:00,75.1,14.8,29.79,NNW,347,0.0,1.0,10,0.00,,,0.00,438,Wunderground v.1.15,2014-01-25 21:41:00,
2014-01-25 14:43:00,74.9,14.6,29.79,NNW,347,0.0,1.0,10,0.00,,,0.00,435,Wunderground v.1.15,2014-01-25 21:43:00,
2014-01-25 14:49:00,76.1,15.5,29.79,NNW,347,0.0,1.0,10,0.00,,,0.00,422,Wunderground v.1.15,2014-01-25 21:49:00,
2014-01-25 14:55:00,77.7,14.3,29.78,NNW,347,0.0,0.0,9,0.00,,,0.00,410,Wunderground v.1.15,2014-01-25 21:55:00,
2014-01-25 15:00:00,77.9,14.5,29.78,NNW,347,0.0,0.0,9,0.00,,,0.00,403,Wunderground v.1.15,2014-01-25 22:00:00,
2014-01-25 15:06:00,78.1,14.6,29.78,NNW,347,0.0,0.0,9,0.00,,,0.00,401,Wunderground v.1.15,2014-01-25 22:06:00,
2014-01-25 15:12:00,78.8,19.8,29.78,NNW,347,0.0,1.0,11,0.00,,,0.00,327,Wunderground v.1.15,2014-01-25 22:12:00,
2014-01-25 15:17:00,78.5,17.4,29.78,NNW,347,0.0,1.0,10,0.00,,,0.00,392,Wunderground v.1.15,2014-01-25 22:17:00,
2014-01-25 15:23:00,76.5,18.0,29.78,NNW,347,1.0,2.0,11,0.00,,,0.00,347,Wunderground v.1.15,2014-01-25 22:23:00,
2014-01-25 15:29:00,76.0,17.6,29.78,NNW,347,1.0,2.0,11,0.00,,,0.00,238,Wunderground v.1.15,2014-01-25 22:29:00,
2014-01-25 15:35:00,76.0,19.7,29.78,NNW,347,0.0,1.0,12,0.00,,,0.00,150,Wunderground v.1.15,2014-01-25 22:35:00,
2014-01-25 15:41:00,75.4,21.1,29.78,NNW,347,0.0,0.0,13,0.00,,,0.00,134,Wunderground v.1.15,2014-01-25 22:41:00,
2014-01-25 15:47:00,74.9,18.8,29.78,NNW,347,0.0,0.0,12,0.00,,,0.00,153,Wunderground v.1.15,2014-01-25 22:47:00,
2014-01-25 15:54:00,74.6,20.5,29.78,NNW,347,0.0,0.0,13,0.00,,,0.00,162,Wunderground v.1.15,2014-01-25 22:54:00,
2014-01-25 15:59:00,73.7,17.9,29.78,NNW,347,0.0,0.0,12,0.00,,,0.00,157,Wunderground v.1.15,2014-01-25 22:59:00,
2014-01-25 16:05:00,73.0,19.2,29.78,NNW,347,0.0,0.0,13,0.00,,,0.00,151,Wunderground v.1.15,2014-01-25 23:05:00,
2014-01-25 16:11:00,73.0,19.2,29.77,NNW,347,0.0,0.0,13,0.00,,,0.00,172,Wunderground v.1.15,2014-01-25 23:11:00,
2014-01-25 16:16:00,72.8,20.8,29.77,NNW,347,0.0,0.0,14,0.00,,,0.00,148,Wunderground v.1.15,2014-01-25 23:16:00,
2014-01-25 16:22:00,73.0,20.9,29.77,NNW,347,0.0,0.0,14,0.00,,,0.00,125,Wunderground v.1.15,2014-01-25 23:22:00,
2014-01-25 16:27:00,72.5,18.8,29.77,NNW,347,0.0,0.0,13,0.00,,,0.00,83,Wunderground v.1.15,2014-01-25 23:27:00,
2014-01-25 16:32:00,72.1,16.6,29.77,NNW,347,0.0,0.0,12,0.00,,,0.00,70,Wunderground v.1.15,2014-01-25 23:32:00,
2014-01-25 16:38:00,72.0,20.1,29.77,NNW,347,0.0,0.0,14,0.00,,,0.00,135,Wunderground v.1.15,2014-01-25 23:38:00,
2014-01-25 16:44:00,72.0,20.1,29.77,NNW,347,0.0,0.0,14,0.00,,,0.00,40,Wunderground v.1.15,2014-01-25 23:44:00,
2014-01-25 16:49:00,71.6,18.1,29.77,NNW,347,0.0,0.0,13,0.00,,,0.00,74,Wunderground v.1.15,2014-01-25 23:49:00,
2014-01-25 16:55:00,71.3,21.2,29.77,NNW,347,0.0,0.0,15,0.00,,,0.00,65,Wunderground v.1.15,2014-01-25 23:55:00,
2014-01-25 17:00:00,71.3,21.2,29.77,NNW,347,0.0,0.0,15,0.00,,,0.00,91,Wunderground v.1.15,2014-01-26 00:00:00,
2014-01-25 17:06:00,71.3,19.6,29.77,NNW,347,0.0,0.0,14,0.00,,,0.00,33,Wunderground v.1.15,2014-01-26 00:06:00,
2014-01-25 17:11:00,70.9,19.3,29.76,NNW,347,0.0,0.0,14,0.00,,,0.00,26,Wunderground v.1.15,2014-01-26 00:11:00,
2014-01-25 17:16:00,70.6,19.0,29.76,NNW,347,0.0,0.0,14,0.00,,,0.00,40,Wunderground v.1.15,2014-01-26 00:16:00,
2014-01-25 17:22:00,70.4,20.5,29.76,NNW,347,0.0,0.0,15,0.00,,,0.00,25,Wunderground v.1.15,2014-01-26 00:22:00,
2014-01-25 17:28:00,70.1,21.8,29.76,NNW,347,0.0,0.0,16,0.00,,,0.00,19,Wunderground v.1.15,2014-01-26 00:28:00,
2014-01-25 17:34:00,69.6,21.4,29.76,NNW,347,0.0,0.0,16,0.00,,,0.00,16,Wunderground v.1.15,2014-01-26 00:34:00,
2014-01-25 17:39:00,69.3,22.6,29.76,NNW,347,0.0,0.0,17,0.00,,,0.00,14,Wunderground v.1.15,2014-01-26 00:39:00,
2014-01-25 17:45:00,68.8,22.2,29.76,NNW,347,0.0,0.0,17,0.00,,,0.00,12,Wunderground v.1.15,2014-01-26 00:45:00,
2014-01-25 17:51:00,68.3,21.8,29.76,NNW,347,0.0,0.0,17,0.00,,,0.00,9,Wunderground v.1.15,2014-01-26 00:51:00,
2014-01-25 17:56:00,67.8,22.7,29.76,NNW,347,0.0,0.0,18,0.00,,,0.00,7,Wunderground v.1.15,2014-01-26 00:56:00,
2014-01-25 18:02:00,67.3,23.6,29.76,NNW,347,0.0,0.0,19,0.00,,,0.00,5,Wunderground v.1.15,2014-01-26 01:02:00,
2014-01-25 18:08:00,66.4,24.1,29.76,NNW,347,0.0,0.0,20,0.00,,,0.00,0,Wunderground v.1.15,2014-01-26 01:08:00,
2014-01-25 18:13:00,65.8,23.6,29.76,NNW,347,0.0,0.0,20,0.00,,,0.00,0,Wunderground v.1.15,2014-01-26 01:13:00,
2014-01-25 18:19:00,65.6,24.6,29.76,NNW,347,0.0,0.0,21,0.00,,,0.00,0,Wunderground v.1.15,2014-01-26 01:19:00,
2014-01-25 18:24:00,65.6,25.7,29.77,NNW,347,0.0,0.0,22,0.00,,,0.00,0,Wunderground v.1.15,2014-01-26 01:24:00,
2014-01-25 18:30:00,65.3,25.4,29.77,NNW,347,0.0,0.0,22,0.00,,,0.00,0,Wunderground v.1.15,2014-01-26 01:30:00,
2014-01-25 18:36:00,65.3,26.5,29.77,NNW,347,0.0,0.0,23,0.00,,,0.00,0,Wunderground v.1.15,2014-01-26 01:36:00,
2014-01-25 18:41:00,65.3,26.5,29.77,NNW,347,0.0,0.0,23,0.00,,,0.00,0,Wunderground v.1.15,2014-01-26 01:41:00,
2014-01-25 18:46:00,65.2,27.5,29.77,NNW,347,0.0,0.0,24,0.00,,,0.00,0,Wunderground v.1.15,2014-01-26 01:46:00,
2014-01-25 18:52:00,65.0,27.3,29.77,NNW,347,0.0,0.0,24,0.00,,,0.00,0,Wunderground v.1.15,2014-01-26 01:52:00,
2014-01-25 18:58:00,64.7,28.0,29.78,NNW,347,0.0,0.0,25,0.00,,,0.00,0,Wunderground v.1.15,2014-01-26 01:58:00,
2014-01-25 19:04:00,64.3,27.7,29.78,NNW,347,0.0,0.0,25,0.00,,,0.00,0,Wunderground v.1.15,2014-01-26 02:04:00,
2014-01-25 19:09:00,64.2,28.6,29.78,NNW,347,0.0,0.0,26,0.00,,,0.00,0,Wunderground v.1.15,2014-01-26 02:09:00,
2014-01-25 19:15:00,64.0,28.4,29.78,NNW,347,0.0,0.0,26,0.00,,,0.00,0,Wunderground v.1.15,2014-01-26 02:15:00,
2014-01-25 19:21:00,63.5,28.0,29.78,NNW,347,0.0,0.0,26,0.00,,,0.00,0,Wunderground v.1.15,2014-01-26 02:21:00,
2014-01-25 19:27:00,63.2,28.6,29.78,NNW,347,0.0,0.0,27,0.00,,,0.00,0,Wunderground v.1.15,2014-01-26 02:27:00,
2014-01-25 19:32:00,63.1,29.4,29.78,NNW,347,0.0,0.0,28,0.00,,,0.00,0,Wunderground v.1.15,2014-01-26 02:32:00,
2014-01-25 19:38:00,62.9,28.4,29.78,NNW,347,0.0,0.0,27,0.00,,,0.00,0,Wunderground v.1.15,2014-01-26 02:38:00,
2014-01-25 19:43:00,63.1,28.5,29.78,NNW,347,0.0,0.0,27,0.00,,,0.00,0,Wunderground v.1.15,2014-01-26 02:43:00,
2014-01-25 19:49:00,63.1,28.5,29.78,NNW,347,0.0,0.0,27,0.00,,,0.00,0,Wunderground v.1.15,2014-01-26 02:49:00,
2014-01-25 19:55:00,62.7,28.2,29.78,NNW,347,0.0,0.0,27,0.00,,,0.00,0,Wunderground v.1.15,2014-01-26 02:55:00,
2014-01-25 20:01:00,62.7,28.2,29.78,NNW,347,0.0,0.0,27,0.00,,,0.00,0,Wunderground v.1.15,2014-01-26 03:01:00,
2014-01-25 20:07:00,63.2,28.6,29.78,NNW,347,0.0,0.0,27,0.00,,,0.00,0,Wunderground v.1.15,2014-01-26 03:07:00,
2014-01-25 20:12:00,63.9,27.4,29.78,NNW,347,0.0,0.0,25,0.00,,,0.00,0,Wunderground v.1.15,2014-01-26 03:12:00,
2014-01-25 20:18:00,64.2,26.6,29.78,NNW,347,0.0,0.0,24,0.00,,,0.00,0,Wunderground v.1.15,2014-01-26 03:18:00,
2014-01-25 20:24:00,64.0,26.4,29.78,NNW,347,0.0,0.0,24,0.00,,,0.00,0,Wunderground v.1.15,2014-01-26 03:24:00,
2014-01-25 20:29:00,63.7,27.2,29.78,NNW,347,0.0,0.0,25,0.00,,,0.00,0,Wunderground v.1.15,2014-01-26 03:29:00,
2014-01-25 20:35:00,63.4,27.9,29.78,NNW,347,0.0,0.0,26,0.00,,,0.00,0,Wunderground v.1.15,2014-01-26 03:35:00,
2014-01-25 20:40:00,62.9,27.5,29.78,NNW,347,0.0,0.0,26,0.00,,,0.00,0,Wunderground v.1.15,2014-01-26 03:40:00,
2014-01-25 20:46:00,62.6,28.1,29.78,NNW,347,0.0,0.0,27,0.00,,,0.00,0,Wunderground v.1.15,2014-01-26 03:46:00,
2014-01-25 20:52:00,62.3,28.7,29.78,NNW,347,0.0,0.0,28,0.00,,,0.00,0,Wunderground v.1.15,2014-01-26 03:52:00,
2014-01-25 20:57:00,62.0,28.5,29.78,NNW,347,0.0,0.0,28,0.00,,,0.00,0,Wunderground v.1.15,2014-01-26 03:57:00,
2014-01-25 21:03:00,61.5,28.9,29.78,NNW,347,0.0,0.0,29,0.00,,,0.00,0,Wunderground v.1.15,2014-01-26 04:03:00,
2014-01-25 21:09:00,61.2,29.5,29.78,NNW,347,0.0,0.0,30,0.00,,,0.00,0,Wunderground v.1.15,2014-01-26 04:09:00,
2014-01-25 21:14:00,60.7,28.2,29.77,NNW,347,0.0,0.0,29,0.00,,,0.00,0,Wunderground v.1.15,2014-01-26 04:14:00,
2014-01-25 21:20:00,60.4,28.8,29.77,NNW,347,0.0,0.0,30,0.00,,,0.00,0,Wunderground v.1.15,2014-01-26 04:20:00,
2014-01-25 21:26:00,59.9,29.2,29.77,NNW,347,0.0,0.0,31,0.00,,,0.00,0,Wunderground v.1.15,2014-01-26 04:26:00,
2014-01-25 21:31:00,59.6,28.9,29.77,NNW,347,0.0,0.0,31,0.00,,,0.00,0,Wunderground v.1.15,2014-01-26 04:31:00,
2014-01-25 21:36:00,59.2,29.3,29.77,NNW,347,0.0,0.0,32,0.00,,,0.00,0,Wunderground v.1.15,2014-01-26 04:36:00,
2014-01-25 21:41:00,58.7,30.4,29.77,NNW,347,0.0,0.0,34,0.00,,,0.00,0,Wunderground v.1.15,2014-01-26 04:41:00,
2014-01-25 21:47:00,58.4,29.4,29.77,NNW,347,0.0,0.0,33,0.00,,,0.00,0,Wunderground v.1.15,2014-01-26 04:47:00,
2014-01-25 21:52:00,58.3,30.0,29.77,NNW,347,0.0,0.0,34,0.00,,,0.00,0,Wunderground v.1.15,2014-01-26 04:52:00,
2014-01-25 21:58:00,58.0,29.8,29.76,NNW,347,0.0,0.0,34,0.00,,,0.00,0,Wunderground v.1.15,2014-01-26 04:58:00,
2014-01-25 22:01:00,57.6,30.1,29.76,NNW,347,0.0,0.0,35,0.00,,,0.00,0,Wunderground v.1.15,2014-01-26 05:01:00,
2014-01-25 22:02:00,57.6,30.1,29.76,NNW,347,0.0,0.0,35,0.00,,,0.00,0,Wunderground v.1.15,2014-01-26 05:02:00,
2014-01-25 22:03:00,57.5,30.0,29.76,NNW,347,0.0,0.0,35,0.00,,,0.00,0,Wunderground v.1.15,2014-01-26 05:03:00,
2014-01-25 22:04:00,57.5,30.0,29.76,NNW,347,0.0,0.0,35,0.00,,,0.00,0,Wunderground v.1.15,2014-01-26 05:04:00,
2014-01-25 22:05:00,57.3,30.5,29.76,NNW,347,0.0,0.0,36,0.00,,,0.00,0,Wunderground v.1.15,2014-01-26 05:05:00,
2014-01-25 22:09:00,57.2,30.5,29.76,NNW,347,0.0,0.0,36,0.00,,,0.00,0,Wunderground v.1.15,2014-01-26 05:09:00,
2014-01-25 22:15:00,57.2,31.8,29.76,NNW,347,0.0,0.0,38,0.00,,,0.00,0,Wunderground v.1.15,2014-01-26 05:15:00,
2014-01-25 22:20:00,57.0,32.9,29.76,NNW,347,0.0,0.0,40,0.00,,,0.00,0,Wunderground v.1.15,2014-01-26 05:20:00,
2014-01-25 22:25:00,56.6,33.2,29.76,NNW,347,0.0,0.0,41,0.00,,,0.00,0,Wunderground v.1.15,2014-01-26 05:25:00,
2014-01-25 22:31:00,56.2,33.4,29.76,NNW,347,0.0,0.0,42,0.00,,,0.00,0,Wunderground v.1.15,2014-01-26 05:31:00,
2014-01-25 22:36:00,55.7,34.1,29.76,NNW,347,0.0,0.0,44,0.00,,,0.00,0,Wunderground v.1.15,2014-01-26 05:36:00,
2014-01-25 22:41:00,55.6,33.4,29.77,NNW,347,0.0,0.0,43,0.00,,,0.00,0,Wunderground v.1.15,2014-01-26 05:41:00,
2014-01-25 22:47:00,55.4,33.3,29.77,NNW,347,0.0,0.0,43,0.00,,,0.00,0,Wunderground v.1.15,2014-01-26 05:47:00,
2014-01-25 22:52:00,55.3,33.2,29.77,NNW,347,0.0,0.0,43,0.00,,,0.00,0,Wunderground v.1.15,2014-01-26 05:52:00,
2014-01-25 22:58:00,55.1,33.0,29.77,NNW,347,0.0,0.0,43,0.00,,,0.00,0,Wunderground v.1.15,2014-01-26 05:58:00,
2014-01-25 23:03:00,55.0,32.9,29.77,NNW,347,0.0,0.0,43,0.00,,,0.00,0,Wunderground v.1.15,2014-01-26 06:03:00,
2014-01-25 23:09:00,55.0,34.6,29.77,NNW,347,0.0,0.0,46,0.00,,,0.00,0,Wunderground v.1.15,2014-01-26 06:09:00,
2014-01-25 23:14:00,54.8,34.9,29.77,NNW,347,0.0,0.0,47,0.00,,,0.00,0,Wunderground v.1.15,2014-01-26 06:14:00,
2014-01-25 23:20:00,54.5,34.1,29.77,NNW,347,0.0,0.0,46,0.00,,,0.00,0,Wunderground v.1.15,2014-01-26 06:20:00,
2014-01-25 23:25:00,54.2,34.4,29.76,NNW,347,0.0,0.0,47,0.00,,,0.00,0,Wunderground v.1.15,2014-01-26 06:25:00,
2014-01-25 23:31:00,54.1,34.8,29.76,NNW,347,0.0,0.0,48,0.00,,,0.00,0,Wunderground v.1.15,2014-01-26 06:31:00,
2014-01-25 23:37:00,53.8,34.6,29.76,NNW,347,0.0,0.0,48,0.00,,,0.00,0,Wunderground v.1.15,2014-01-26 06:37:00,
2014-01-25 23:44:00,53.8,34.6,29.76,NNW,347,0.0,0.0,48,0.00,,,0.00,0,Wunderground v.1.15,2014-01-26 06:44:00,
2014-01-25 23:49:00,53.6,34.9,29.76,NNW,347,0.0,0.0,49,0.00,,,0.00,0,Wunderground v.1.15,2014-01-26 06:49:00,
2014-01-25 23:54:00,53.3,34.6,29.77,NNW,347,0.0,0.0,49,0.00,,,0.00,0,Wunderground v.1.15,2014-01-26 06:54:00,